sensor_id;sensor_type;location;lat;lon;timestamp;temperature;humidity
17726;DHT22;8983;53.156;17.960;2023-03-01T00:01:25;-0.90;99.90
17726;DHT22;8983;53.156;17.960;2023-03-01T00:03:54;-1.30;99.90
17726;DHT22;8983;53.156;17.960;2023-03-01T00:06:22;-1.30;99.90
17726;DHT22;8983;53.156;17.960;2023-03-01T00:08:51;-1.40;99.90
17726;DHT22;8983;53.156;17.960;2023-03-01T00:11:21;-1.40;99.90
17726;DHT22;8983;53.156;17.960;2023-03-01T00:13:52;-0.80;99.90
17726;DHT22;8983;53.156;17.960;2023-03-01T00:16:23;-1.40;99.90
17726;DHT22;8983;53.156;17.960;2023-03-01T00:18:53;-1.40;99.90
17726;DHT22;8983;53.156;17.960;2023-03-01T00:21:22;-1.40;99.90
17726;DHT22;8983;53.156;17.960;2023-03-01T00:23:51;-1.40;99.90
17726;DHT22;8983;53.156;17.960;2023-03-01T00:26:21;-1.40;99.90
17726;DHT22;8983;53.156;17.960;2023-03-01T00:28:50;-1.40;99.90
17726;DHT22;8983;53.156;17.960;2023-03-01T00:31:20;-1.50;99.90
17726;DHT22;8983;53.156;17.960;2023-03-01T00:33:52;-1.50;99.90
17726;DHT22;8983;53.156;17.960;2023-03-01T00:36:20;-1.50;99.90
17726;DHT22;8983;53.156;17.960;2023-03-01T00:38:48;-1.30;99.90
17726;DHT22;8983;53.156;17.960;2023-03-01T00:41:18;-1.50;99.90
17726;DHT22;8983;53.156;17.960;2023-03-01T00:43:46;-1.50;99.90
17726;DHT22;8983;53.156;17.960;2023-03-01T00:46:16;-1.60;99.90
17726;DHT22;8983;53.156;17.960;2023-03-01T00:48:44;-1.60;99.90
17726;DHT22;8983;53.156;17.960;2023-03-01T00:51:15;-1.60;99.90
17726;DHT22;8983;53.156;17.960;2023-03-01T00:53:44;-1.60;99.90
17726;DHT22;8983;53.156;17.960;2023-03-01T00:56:14;-1.60;99.90
17726;DHT22;8983;53.156;17.960;2023-03-01T00:58:42;-1.60;99.90
17726;DHT22;8983;53.156;17.960;2023-03-01T01:01:12;-1.60;99.90
17726;DHT22;8983;53.156;17.960;2023-03-01T01:03:50;-1.70;99.90
17726;DHT22;8983;53.156;17.960;2023-03-01T01:06:21;-1.70;99.90
17726;DHT22;8983;53.156;17.960;2023-03-01T01:08:51;-1.70;99.90
17726;DHT22;8983;53.156;17.960;2023-03-01T01:11:20;-1.70;99.90
17726;DHT22;8983;53.156;17.960;2023-03-01T01:13:50;-1.70;99.90
17726;DHT22;8983;53.156;17.960;2023-03-01T01:16:20;-1.70;99.90
17726;DHT22;8983;53.156;17.960;2023-03-01T01:18:49;-1.70;99.90
17726;DHT22;8983;53.156;17.960;2023-03-01T01:21:20;-1.80;99.90
17726;DHT22;8983;53.156;17.960;2023-03-01T01:23:50;-1.80;99.90
17726;DHT22;8983;53.156;17.960;2023-03-01T01:26:20;-1.70;99.90
17726;DHT22;8983;53.156;17.960;2023-03-01T01:28:48;-1.70;99.90
17726;DHT22;8983;53.156;17.960;2023-03-01T01:31:17;-1.80;99.90
17726;DHT22;8983;53.156;17.960;2023-03-01T01:33:46;-1.80;99.90
17726;DHT22;8983;53.156;17.960;2023-03-01T01:36:14;-1.70;99.90
17726;DHT22;8983;53.156;17.960;2023-03-01T01:38:43;-1.70;99.90
17726;DHT22;8983;53.156;17.960;2023-03-01T01:41:12;-1.70;99.90
17726;DHT22;8983;53.156;17.960;2023-03-01T01:43:42;-1.70;99.90
17726;DHT22;8983;53.156;17.960;2023-03-01T01:46:19;-1.70;99.90
17726;DHT22;8983;53.156;17.960;2023-03-01T01:48:52;-1.70;99.90
17726;DHT22;8983;53.156;17.960;2023-03-01T01:51:25;-1.70;99.90
17726;DHT22;8983;53.156;17.960;2023-03-01T01:53:59;-1.60;99.90
17726;DHT22;8983;53.156;17.960;2023-03-01T01:56:29;-1.70;99.90
17726;DHT22;8983;53.156;17.960;2023-03-01T01:58:58;-1.60;99.90
17726;DHT22;8983;53.156;17.960;2023-03-01T02:01:26;-1.70;99.90
17726;DHT22;8983;53.156;17.960;2023-03-01T02:03:54;-1.70;99.90
17726;DHT22;8983;53.156;17.960;2023-03-01T02:06:27;-1.70;99.90
17726;DHT22;8983;53.156;17.960;2023-03-01T02:09:02;-1.60;99.90
17726;DHT22;8983;53.156;17.960;2023-03-01T02:11:31;-1.60;99.90
17726;DHT22;8983;53.156;17.960;2023-03-01T02:14:00;-1.70;99.90
17726;DHT22;8983;53.156;17.960;2023-03-01T02:16:28;-1.80;99.90
17726;DHT22;8983;53.156;17.960;2023-03-01T02:18:59;-1.70;99.90
17726;DHT22;8983;53.156;17.960;2023-03-01T02:21:37;-1.80;99.90
17726;DHT22;8983;53.156;17.960;2023-03-01T02:24:15;-1.80;99.90
17726;DHT22;8983;53.156;17.960;2023-03-01T02:26:51;-1.70;99.90
17726;DHT22;8983;53.156;17.960;2023-03-01T02:29:22;-1.80;99.90
17726;DHT22;8983;53.156;17.960;2023-03-01T02:31:51;-1.80;99.90
17726;DHT22;8983;53.156;17.960;2023-03-01T02:34:23;-1.80;99.90
17726;DHT22;8983;53.156;17.960;2023-03-01T02:36:56;-1.80;99.90
17726;DHT22;8983;53.156;17.960;2023-03-01T02:39:26;-1.80;99.90
17726;DHT22;8983;53.156;17.960;2023-03-01T02:41:56;-1.80;99.90
17726;DHT22;8983;53.156;17.960;2023-03-01T02:44:27;-1.80;99.90
17726;DHT22;8983;53.156;17.960;2023-03-01T02:46:56;-1.90;99.90
17726;DHT22;8983;53.156;17.960;2023-03-01T02:49:27;-1.90;99.90
17726;DHT22;8983;53.156;17.960;2023-03-01T02:52:27;-1.90;99.90
17726;DHT22;8983;53.156;17.960;2023-03-01T02:54:59;-1.80;99.90
17726;DHT22;8983;53.156;17.960;2023-03-01T02:57:30;-1.80;99.90
17726;DHT22;8983;53.156;17.960;2023-03-01T03:00:03;-1.80;99.90
17726;DHT22;8983;53.156;17.960;2023-03-01T03:02:34;-1.80;99.90
17726;DHT22;8983;53.156;17.960;2023-03-01T03:05:09;-1.80;99.90
17726;DHT22;8983;53.156;17.960;2023-03-01T03:07:39;-1.80;99.90
17726;DHT22;8983;53.156;17.960;2023-03-01T03:10:09;-1.90;99.90
17726;DHT22;8983;53.156;17.960;2023-03-01T03:12:40;-1.90;99.90
17726;DHT22;8983;53.156;17.960;2023-03-01T03:15:10;-1.90;99.90
17726;DHT22;8983;53.156;17.960;2023-03-01T03:17:41;-1.80;99.90
17726;DHT22;8983;53.156;17.960;2023-03-01T03:20:14;-1.90;99.90
17726;DHT22;8983;53.156;17.960;2023-03-01T03:22:47;-1.80;99.90
17726;DHT22;8983;53.156;17.960;2023-03-01T03:25:16;-1.90;99.90
17726;DHT22;8983;53.156;17.960;2023-03-01T03:27:46;-1.90;99.90
17726;DHT22;8983;53.156;17.960;2023-03-01T03:30:18;-1.90;99.90
17726;DHT22;8983;53.156;17.960;2023-03-01T03:32:48;-1.90;99.90
17726;DHT22;8983;53.156;17.960;2023-03-01T03:35:21;-1.90;99.90
17726;DHT22;8983;53.156;17.960;2023-03-01T03:37:49;-1.90;99.90
17726;DHT22;8983;53.156;17.960;2023-03-01T03:40:31;-1.90;99.90
17726;DHT22;8983;53.156;17.960;2023-03-01T03:43:00;-1.90;99.90
17726;DHT22;8983;53.156;17.960;2023-03-01T03:45:30;-1.90;99.90
17726;DHT22;8983;53.156;17.960;2023-03-01T03:48:00;-1.90;99.90
17726;DHT22;8983;53.156;17.960;2023-03-01T03:50:29;-1.90;99.90
17726;DHT22;8983;53.156;17.960;2023-03-01T03:52:57;-1.90;99.90
17726;DHT22;8983;53.156;17.960;2023-03-01T03:55:25;-1.90;99.90
17726;DHT22;8983;53.156;17.960;2023-03-01T03:57:58;-1.90;99.90
17726;DHT22;8983;53.156;17.960;2023-03-01T04:00:30;-1.90;99.90
17726;DHT22;8983;53.156;17.960;2023-03-01T04:02:58;-1.70;99.90
17726;DHT22;8983;53.156;17.960;2023-03-01T04:05:27;-1.90;99.90
17726;DHT22;8983;53.156;17.960;2023-03-01T04:07:56;-1.90;99.90
17726;DHT22;8983;53.156;17.960;2023-03-01T04:10:35;-1.90;99.90
17726;DHT22;8983;53.156;17.960;2023-03-01T04:13:05;-1.80;99.90
17726;DHT22;8983;53.156;17.960;2023-03-01T04:15:36;-1.90;99.90
17726;DHT22;8983;53.156;17.960;2023-03-01T04:18:04;-1.90;99.90
17726;DHT22;8983;53.156;17.960;2023-03-01T04:20:34;-1.90;99.90
17726;DHT22;8983;53.156;17.960;2023-03-01T04:23:07;-1.90;99.90
17726;DHT22;8983;53.156;17.960;2023-03-01T04:25:41;-1.90;99.90
17726;DHT22;8983;53.156;17.960;2023-03-01T04:28:10;-1.90;99.90
17726;DHT22;8983;53.156;17.960;2023-03-01T04:30:40;-1.90;99.90
17726;DHT22;8983;53.156;17.960;2023-03-01T04:33:10;-1.90;99.90
17726;DHT22;8983;53.156;17.960;2023-03-01T04:35:38;-1.80;99.90
17726;DHT22;8983;53.156;17.960;2023-03-01T04:38:08;-1.90;99.90
17726;DHT22;8983;53.156;17.960;2023-03-01T04:40:36;-1.90;99.90
17726;DHT22;8983;53.156;17.960;2023-03-01T04:43:04;-1.90;99.90
17726;DHT22;8983;53.156;17.960;2023-03-01T04:45:33;-1.90;99.90
17726;DHT22;8983;53.156;17.960;2023-03-01T04:48:04;-1.80;99.90
17726;DHT22;8983;53.156;17.960;2023-03-01T04:50:32;-1.80;99.90
17726;DHT22;8983;53.156;17.960;2023-03-01T04:53:00;-1.60;99.90
17726;DHT22;8983;53.156;17.960;2023-03-01T04:55:29;-1.80;99.90
17726;DHT22;8983;53.156;17.960;2023-03-01T04:57:58;-1.80;99.90
17726;DHT22;8983;53.156;17.960;2023-03-01T05:00:26;-1.80;99.90
17726;DHT22;8983;53.156;17.960;2023-03-01T05:02:56;-1.80;99.90
17726;DHT22;8983;53.156;17.960;2023-03-01T05:05:28;-1.80;99.90
17726;DHT22;8983;53.156;17.960;2023-03-01T05:07:59;-1.80;99.90
17726;DHT22;8983;53.156;17.960;2023-03-01T05:10:29;-1.80;99.90
17726;DHT22;8983;53.156;17.960;2023-03-01T05:12:58;-1.80;99.90
17726;DHT22;8983;53.156;17.960;2023-03-01T05:15:29;-1.80;99.90
17726;DHT22;8983;53.156;17.960;2023-03-01T05:17:59;-1.80;99.90
17726;DHT22;8983;53.156;17.960;2023-03-01T05:20:29;-1.80;99.90
17726;DHT22;8983;53.156;17.960;2023-03-01T05:22:59;-1.80;99.90
17726;DHT22;8983;53.156;17.960;2023-03-01T05:25:33;-1.70;99.90
17726;DHT22;8983;53.156;17.960;2023-03-01T05:28:02;-1.80;99.90
17726;DHT22;8983;53.156;17.960;2023-03-01T05:30:31;-1.70;99.90
17726;DHT22;8983;53.156;17.960;2023-03-01T05:33:00;-1.80;99.90
17726;DHT22;8983;53.156;17.960;2023-03-01T05:35:32;-1.80;99.90
17726;DHT22;8983;53.156;17.960;2023-03-01T05:38:00;-1.70;99.90
17726;DHT22;8983;53.156;17.960;2023-03-01T05:40:28;-1.80;99.90
17726;DHT22;8983;53.156;17.960;2023-03-01T05:42:57;-1.80;99.90
17726;DHT22;8983;53.156;17.960;2023-03-01T05:45:26;-1.80;99.90
17726;DHT22;8983;53.156;17.960;2023-03-01T05:47:54;-1.80;99.90
17726;DHT22;8983;53.156;17.960;2023-03-01T05:50:25;-1.80;99.90
17726;DHT22;8983;53.156;17.960;2023-03-01T05:52:59;-1.70;99.90
17726;DHT22;8983;53.156;17.960;2023-03-01T05:55:29;-1.70;99.90
17726;DHT22;8983;53.156;17.960;2023-03-01T05:57:58;-1.70;99.90
17726;DHT22;8983;53.156;17.960;2023-03-01T06:00:27;-1.70;99.90
17726;DHT22;8983;53.156;17.960;2023-03-01T06:02:56;-1.70;99.90
17726;DHT22;8983;53.156;17.960;2023-03-01T06:05:25;-1.60;99.90
17726;DHT22;8983;53.156;17.960;2023-03-01T06:07:54;-1.60;99.90
17726;DHT22;8983;53.156;17.960;2023-03-01T06:10:23;-1.60;99.90
17726;DHT22;8983;53.156;17.960;2023-03-01T06:12:52;-1.50;99.90
17726;DHT22;8983;53.156;17.960;2023-03-01T06:15:21;-1.50;99.90
17726;DHT22;8983;53.156;17.960;2023-03-01T06:17:50;-1.40;99.90
17726;DHT22;8983;53.156;17.960;2023-03-01T06:20:20;-1.40;99.90
17726;DHT22;8983;53.156;17.960;2023-03-01T06:22:49;-1.30;99.90
17726;DHT22;8983;53.156;17.960;2023-03-01T06:25:20;-1.20;99.90
17726;DHT22;8983;53.156;17.960;2023-03-01T06:27:50;-1.20;99.90
17726;DHT22;8983;53.156;17.960;2023-03-01T06:30:20;-1.10;99.90
17726;DHT22;8983;53.156;17.960;2023-03-01T06:32:48;-1.00;99.90
17726;DHT22;8983;53.156;17.960;2023-03-01T06:35:18;-0.90;99.90
17726;DHT22;8983;53.156;17.960;2023-03-01T06:37:47;-0.80;99.90
17726;DHT22;8983;53.156;17.960;2023-03-01T06:40:16;-0.70;99.90
17726;DHT22;8983;53.156;17.960;2023-03-01T06:42:49;-0.70;99.90
17726;DHT22;8983;53.156;17.960;2023-03-01T06:45:19;-0.60;99.90
17726;DHT22;8983;53.156;17.960;2023-03-01T06:47:48;-0.60;99.90
17726;DHT22;8983;53.156;17.960;2023-03-01T06:50:17;-0.60;99.90
17726;DHT22;8983;53.156;17.960;2023-03-01T06:52:45;-0.50;99.90
17726;DHT22;8983;53.156;17.960;2023-03-01T06:55:14;-0.50;99.90
17726;DHT22;8983;53.156;17.960;2023-03-01T06:57:42;-0.50;99.90
17726;DHT22;8983;53.156;17.960;2023-03-01T07:00:13;-0.40;99.90
17726;DHT22;8983;53.156;17.960;2023-03-01T07:02:42;-0.50;99.90
17726;DHT22;8983;53.156;17.960;2023-03-01T07:05:10;-0.50;99.90
17726;DHT22;8983;53.156;17.960;2023-03-01T07:07:38;-0.60;99.90
17726;DHT22;8983;53.156;17.960;2023-03-01T07:10:08;-0.60;99.90
17726;DHT22;8983;53.156;17.960;2023-03-01T07:12:36;-0.50;99.90
17726;DHT22;8983;53.156;17.960;2023-03-01T07:15:05;-0.40;99.90
17726;DHT22;8983;53.156;17.960;2023-03-01T07:17:37;-0.50;99.90
17726;DHT22;8983;53.156;17.960;2023-03-01T07:20:06;-0.50;99.90
17726;DHT22;8983;53.156;17.960;2023-03-01T07:22:34;-0.50;99.90
17726;DHT22;8983;53.156;17.960;2023-03-01T07:25:03;-0.50;99.90
17726;DHT22;8983;53.156;17.960;2023-03-01T07:27:31;-0.50;99.90
17726;DHT22;8983;53.156;17.960;2023-03-01T07:29:59;-0.40;99.90
17726;DHT22;8983;53.156;17.960;2023-03-01T07:32:27;-0.70;99.90
17726;DHT22;8983;53.156;17.960;2023-03-01T07:34:56;-0.40;99.90
17726;DHT22;8983;53.156;17.960;2023-03-01T07:37:24;-0.30;99.90
17726;DHT22;8983;53.156;17.960;2023-03-01T07:39:53;-0.30;99.90
17726;DHT22;8983;53.156;17.960;2023-03-01T07:42:21;-0.10;99.90
17726;DHT22;8983;53.156;17.960;2023-03-01T07:44:49;-0.20;99.90
17726;DHT22;8983;53.156;17.960;2023-03-01T07:47:18;-0.10;99.90
17726;DHT22;8983;53.156;17.960;2023-03-01T07:49:46;-0.20;99.90
17726;DHT22;8983;53.156;17.960;2023-03-01T07:52:16;-0.10;99.90
17726;DHT22;8983;53.156;17.960;2023-03-01T07:54:44;-0.20;99.90
17726;DHT22;8983;53.156;17.960;2023-03-01T07:57:12;0.10;99.90
17726;DHT22;8983;53.156;17.960;2023-03-01T07:59:40;0.10;99.90
17726;DHT22;8983;53.156;17.960;2023-03-01T08:02:08;0.20;99.90
17726;DHT22;8983;53.156;17.960;2023-03-01T08:04:37;0.20;99.90
17726;DHT22;8983;53.156;17.960;2023-03-01T08:07:06;0.20;99.90
17726;DHT22;8983;53.156;17.960;2023-03-01T08:09:35;0.30;99.90
17726;DHT22;8983;53.156;17.960;2023-03-01T08:12:05;0.30;99.90
17726;DHT22;8983;53.156;17.960;2023-03-01T08:14:33;0.30;99.90
17726;DHT22;8983;53.156;17.960;2023-03-01T08:17:01;0.30;99.90
17726;DHT22;8983;53.156;17.960;2023-03-01T08:19:30;0.50;99.90
17726;DHT22;8983;53.156;17.960;2023-03-01T08:21:59;0.50;99.90
17726;DHT22;8983;53.156;17.960;2023-03-01T08:24:28;0.50;99.90
17726;DHT22;8983;53.156;17.960;2023-03-01T08:26:58;0.70;99.90
17726;DHT22;8983;53.156;17.960;2023-03-01T08:29:26;0.60;99.90
17726;DHT22;8983;53.156;17.960;2023-03-01T08:31:54;0.70;99.90
17726;DHT22;8983;53.156;17.960;2023-03-01T08:34:23;0.70;99.90
17726;DHT22;8983;53.156;17.960;2023-03-01T08:36:51;0.80;99.90
17726;DHT22;8983;53.156;17.960;2023-03-01T08:39:21;0.80;99.90
17726;DHT22;8983;53.156;17.960;2023-03-01T08:41:49;0.90;99.90
17726;DHT22;8983;53.156;17.960;2023-03-01T08:44:19;0.90;99.90
17726;DHT22;8983;53.156;17.960;2023-03-01T08:46:47;1.00;99.90
17726;DHT22;8983;53.156;17.960;2023-03-01T08:49:18;1.20;99.90
17726;DHT22;8983;53.156;17.960;2023-03-01T08:51:47;1.10;99.90
17726;DHT22;8983;53.156;17.960;2023-03-01T08:54:17;1.20;99.90
17726;DHT22;8983;53.156;17.960;2023-03-01T08:56:46;1.30;99.90
17726;DHT22;8983;53.156;17.960;2023-03-01T08:59:17;1.20;99.90
17726;DHT22;8983;53.156;17.960;2023-03-01T09:01:47;1.40;99.90
17726;DHT22;8983;53.156;17.960;2023-03-01T09:04:15;1.50;99.90
17726;DHT22;8983;53.156;17.960;2023-03-01T09:06:43;1.60;99.90
17726;DHT22;8983;53.156;17.960;2023-03-01T09:09:14;1.70;99.90
17726;DHT22;8983;53.156;17.960;2023-03-01T09:11:43;1.70;99.90
17726;DHT22;8983;53.156;17.960;2023-03-01T09:14:13;1.80;99.90
17726;DHT22;8983;53.156;17.960;2023-03-01T09:16:41;1.80;99.90
17726;DHT22;8983;53.156;17.960;2023-03-01T09:19:11;1.90;99.90
17726;DHT22;8983;53.156;17.960;2023-03-01T09:21:40;2.00;99.90
17726;DHT22;8983;53.156;17.960;2023-03-01T09:24:14;2.00;99.90
17726;DHT22;8983;53.156;17.960;2023-03-01T09:26:43;2.20;99.90
17726;DHT22;8983;53.156;17.960;2023-03-01T09:29:14;2.10;99.90
17726;DHT22;8983;53.156;17.960;2023-03-01T09:31:43;2.30;99.90
17726;DHT22;8983;53.156;17.960;2023-03-01T09:34:12;2.30;99.90
17726;DHT22;8983;53.156;17.960;2023-03-01T09:36:42;2.40;99.90
17726;DHT22;8983;53.156;17.960;2023-03-01T09:39:10;2.40;99.90
17726;DHT22;8983;53.156;17.960;2023-03-01T09:41:45;2.50;99.90
17726;DHT22;8983;53.156;17.960;2023-03-01T09:44:31;2.50;99.90
17726;DHT22;8983;53.156;17.960;2023-03-01T09:47:00;2.50;99.90
17726;DHT22;8983;53.156;17.960;2023-03-01T09:49:33;2.80;99.90
17726;DHT22;8983;53.156;17.960;2023-03-01T09:52:09;2.70;99.90
17726;DHT22;8983;53.156;17.960;2023-03-01T09:54:40;2.70;99.90
17726;DHT22;8983;53.156;17.960;2023-03-01T09:57:18;2.80;99.90
17726;DHT22;8983;53.156;17.960;2023-03-01T10:00:27;2.80;99.90
17726;DHT22;8983;53.156;17.960;2023-03-01T10:03:01;3.00;99.90
17726;DHT22;8983;53.156;17.960;2023-03-01T10:08:29;3.40;99.90
17726;DHT22;8983;53.156;17.960;2023-03-01T10:11:00;3.70;99.90
17726;DHT22;8983;53.156;17.960;2023-03-01T10:13:37;4.10;99.90
17726;DHT22;8983;53.156;17.960;2023-03-01T10:16:11;4.20;99.90
17726;DHT22;8983;53.156;17.960;2023-03-01T10:18:41;4.60;99.90
17726;DHT22;8983;53.156;17.960;2023-03-01T10:21:15;4.90;99.90
17726;DHT22;8983;53.156;17.960;2023-03-01T10:23:44;5.20;99.90
17726;DHT22;8983;53.156;17.960;2023-03-01T10:26:32;5.40;99.90
17726;DHT22;8983;53.156;17.960;2023-03-01T10:29:04;5.60;99.90
17726;DHT22;8983;53.156;17.960;2023-03-01T10:31:41;5.90;99.90
17726;DHT22;8983;53.156;17.960;2023-03-01T10:34:14;6.10;99.90
17726;DHT22;8983;53.156;17.960;2023-03-01T10:36:47;6.40;99.90
17726;DHT22;8983;53.156;17.960;2023-03-01T10:39:18;6.50;99.90
17726;DHT22;8983;53.156;17.960;2023-03-01T10:41:56;6.60;99.90
17726;DHT22;8983;53.156;17.960;2023-03-01T10:44:42;6.70;99.90
17726;DHT22;8983;53.156;17.960;2023-03-01T10:47:22;6.80;99.90
17726;DHT22;8983;53.156;17.960;2023-03-01T10:49:56;7.10;99.90
17726;DHT22;8983;53.156;17.960;2023-03-01T10:52:29;7.10;99.90
17726;DHT22;8983;53.156;17.960;2023-03-01T10:55:00;7.30;99.90
17726;DHT22;8983;53.156;17.960;2023-03-01T10:57:34;7.40;99.90
17726;DHT22;8983;53.156;17.960;2023-03-01T11:00:23;7.60;99.90
17726;DHT22;8983;53.156;17.960;2023-03-01T11:03:09;7.70;99.90
17726;DHT22;8983;53.156;17.960;2023-03-01T11:05:51;7.70;99.90
17726;DHT22;8983;53.156;17.960;2023-03-01T11:08:40;7.70;99.90
17726;DHT22;8983;53.156;17.960;2023-03-01T11:11:26;7.90;99.90
17726;DHT22;8983;53.156;17.960;2023-03-01T11:14:00;8.00;99.90
17726;DHT22;8983;53.156;17.960;2023-03-01T11:16:35;8.30;99.90
17726;DHT22;8983;53.156;17.960;2023-03-01T11:19:18;8.30;99.90
17726;DHT22;8983;53.156;17.960;2023-03-01T11:22:02;8.50;99.90
17726;DHT22;8983;53.156;17.960;2023-03-01T11:24:37;8.80;99.90
17726;DHT22;8983;53.156;17.960;2023-03-01T11:27:16;8.70;99.90
17726;DHT22;8983;53.156;17.960;2023-03-01T11:29:47;9.00;99.90
17726;DHT22;8983;53.156;17.960;2023-03-01T11:32:19;9.20;99.90
17726;DHT22;8983;53.156;17.960;2023-03-01T11:34:52;9.30;99.90
17726;DHT22;8983;53.156;17.960;2023-03-01T11:37:29;9.40;99.90
17726;DHT22;8983;53.156;17.960;2023-03-01T11:40:10;9.40;99.90
17726;DHT22;8983;53.156;17.960;2023-03-01T11:42:51;9.60;99.90
17726;DHT22;8983;53.156;17.960;2023-03-01T11:45:25;9.80;99.90
17726;DHT22;8983;53.156;17.960;2023-03-01T11:48:07;9.80;99.90
17726;DHT22;8983;53.156;17.960;2023-03-01T11:50:45;9.90;99.90
17726;DHT22;8983;53.156;17.960;2023-03-01T11:53:27;10.00;99.90
17726;DHT22;8983;53.156;17.960;2023-03-01T11:56:09;10.10;99.90
17726;DHT22;8983;53.156;17.960;2023-03-01T12:01:58;10.60;99.90
17726;DHT22;8983;53.156;17.960;2023-03-01T12:04:54;10.70;99.90
17726;DHT22;8983;53.156;17.960;2023-03-01T12:07:36;10.80;99.90
17726;DHT22;8983;53.156;17.960;2023-03-01T12:10:22;10.80;99.90
17726;DHT22;8983;53.156;17.960;2023-03-01T12:13:17;10.90;99.90
17726;DHT22;8983;53.156;17.960;2023-03-01T12:15:58;10.90;99.90
17726;DHT22;8983;53.156;17.960;2023-03-01T12:18:49;11.10;99.90
17726;DHT22;8983;53.156;17.960;2023-03-01T12:21:30;10.90;99.90
17726;DHT22;8983;53.156;17.960;2023-03-01T12:27:30;11.10;99.90
17726;DHT22;8983;53.156;17.960;2023-03-01T12:30:10;11.20;99.90
17726;DHT22;8983;53.156;17.960;2023-03-01T12:32:55;11.40;99.90
17726;DHT22;8983;53.156;17.960;2023-03-01T12:35:40;11.60;99.90
17726;DHT22;8983;53.156;17.960;2023-03-01T12:38:24;11.60;99.90
17726;DHT22;8983;53.156;17.960;2023-03-01T12:41:11;11.80;99.90
17726;DHT22;8983;53.156;17.960;2023-03-01T12:43:51;11.70;99.90
17726;DHT22;8983;53.156;17.960;2023-03-01T12:46:40;11.70;99.90
17726;DHT22;8983;53.156;17.960;2023-03-01T12:49:14;11.80;99.90
17726;DHT22;8983;53.156;17.960;2023-03-01T12:51:49;11.90;99.90
17726;DHT22;8983;53.156;17.960;2023-03-01T12:54:24;12.10;99.90
17726;DHT22;8983;53.156;17.960;2023-03-01T12:56:54;12.20;99.90
17726;DHT22;8983;53.156;17.960;2023-03-01T12:59:28;12.30;99.90
17726;DHT22;8983;53.156;17.960;2023-03-01T13:02:03;12.60;99.90
17726;DHT22;8983;53.156;17.960;2023-03-01T13:04:45;12.70;99.90
17726;DHT22;8983;53.156;17.960;2023-03-01T13:07:24;12.90;99.90
17726;DHT22;8983;53.156;17.960;2023-03-01T13:10:06;13.00;99.90
17726;DHT22;8983;53.156;17.960;2023-03-01T13:12:47;13.10;99.90
17726;DHT22;8983;53.156;17.960;2023-03-01T13:15:26;13.10;99.90
17726;DHT22;8983;53.156;17.960;2023-03-01T13:17:57;13.10;99.90
17726;DHT22;8983;53.156;17.960;2023-03-01T13:20:29;13.10;99.90
17726;DHT22;8983;53.156;17.960;2023-03-01T13:23:09;13.30;99.90
17726;DHT22;8983;53.156;17.960;2023-03-01T13:26:00;13.30;99.50
17726;DHT22;8983;53.156;17.960;2023-03-01T13:28:39;13.30;99.10
17726;DHT22;8983;53.156;17.960;2023-03-01T13:31:10;13.20;98.70
17726;DHT22;8983;53.156;17.960;2023-03-01T13:33:44;13.20;98.60
17726;DHT22;8983;53.156;17.960;2023-03-01T13:36:48;13.20;98.00
17726;DHT22;8983;53.156;17.960;2023-03-01T13:39:29;13.10;98.00
17726;DHT22;8983;53.156;17.960;2023-03-01T13:41:59;13.10;97.80
17726;DHT22;8983;53.156;17.960;2023-03-01T13:44:31;12.90;97.60
17726;DHT22;8983;53.156;17.960;2023-03-01T13:47:06;12.90;97.70
17726;DHT22;8983;53.156;17.960;2023-03-01T13:49:46;13.10;97.60
17726;DHT22;8983;53.156;17.960;2023-03-01T13:52:36;13.30;97.40
17726;DHT22;8983;53.156;17.960;2023-03-01T13:55:16;13.40;97.00
17726;DHT22;8983;53.156;17.960;2023-03-01T13:57:47;13.30;96.60
17726;DHT22;8983;53.156;17.960;2023-03-01T14:00:32;13.20;96.60
17726;DHT22;8983;53.156;17.960;2023-03-01T14:03:03;13.10;96.60
17726;DHT22;8983;53.156;17.960;2023-03-01T14:05:33;13.00;96.50
17726;DHT22;8983;53.156;17.960;2023-03-01T14:08:03;12.90;96.40
17726;DHT22;8983;53.156;17.960;2023-03-01T14:10:36;12.90;96.50
17726;DHT22;8983;53.156;17.960;2023-03-01T14:13:24;13.00;96.40
17726;DHT22;8983;53.156;17.960;2023-03-01T14:16:09;12.90;96.20
17726;DHT22;8983;53.156;17.960;2023-03-01T14:18:45;13.10;96.20
17726;DHT22;8983;53.156;17.960;2023-03-01T14:21:17;13.10;96.00
17726;DHT22;8983;53.156;17.960;2023-03-01T14:23:46;13.10;96.00
17726;DHT22;8983;53.156;17.960;2023-03-01T14:26:20;13.10;95.90
17726;DHT22;8983;53.156;17.960;2023-03-01T14:28:50;13.10;95.80
17726;DHT22;8983;53.156;17.960;2023-03-01T14:31:39;13.00;95.80
17726;DHT22;8983;53.156;17.960;2023-03-01T14:34:20;13.00;95.60
17726;DHT22;8983;53.156;17.960;2023-03-01T14:36:50;12.90;95.60
17726;DHT22;8983;53.156;17.960;2023-03-01T14:39:23;13.00;95.50
17726;DHT22;8983;53.156;17.960;2023-03-01T14:41:52;12.70;95.40
17726;DHT22;8983;53.156;17.960;2023-03-01T14:44:23;12.60;95.50
17726;DHT22;8983;53.156;17.960;2023-03-01T14:46:54;12.60;95.50
17726;DHT22;8983;53.156;17.960;2023-03-01T14:49:27;12.60;95.50
17726;DHT22;8983;53.156;17.960;2023-03-01T14:52:02;12.60;95.50
17726;DHT22;8983;53.156;17.960;2023-03-01T14:54:39;12.70;95.50
17726;DHT22;8983;53.156;17.960;2023-03-01T14:57:14;12.70;95.50
17726;DHT22;8983;53.156;17.960;2023-03-01T14:59:43;12.70;95.50
17726;DHT22;8983;53.156;17.960;2023-03-01T15:02:15;12.60;95.40
17726;DHT22;8983;53.156;17.960;2023-03-01T15:04:47;12.60;95.50
17726;DHT22;8983;53.156;17.960;2023-03-01T15:07:18;12.60;95.50
17726;DHT22;8983;53.156;17.960;2023-03-01T15:09:46;12.60;95.50
17726;DHT22;8983;53.156;17.960;2023-03-01T15:12:34;12.60;95.50
17726;DHT22;8983;53.156;17.960;2023-03-01T15:18:13;12.60;95.40
17726;DHT22;8983;53.156;17.960;2023-03-01T15:20:42;12.50;95.40
17726;DHT22;8983;53.156;17.960;2023-03-01T15:23:22;12.30;95.30
17726;DHT22;8983;53.156;17.960;2023-03-01T15:25:52;12.00;95.40
17726;DHT22;8983;53.156;17.960;2023-03-01T15:28:26;11.60;95.60
17726;DHT22;8983;53.156;17.960;2023-03-01T15:30:57;11.50;95.70
17726;DHT22;8983;53.156;17.960;2023-03-01T15:33:33;11.20;95.90
17726;DHT22;8983;53.156;17.960;2023-03-01T15:36:03;10.90;96.00
17726;DHT22;8983;53.156;17.960;2023-03-01T15:38:35;10.70;96.20
17726;DHT22;8983;53.156;17.960;2023-03-01T15:41:23;10.40;96.40
17726;DHT22;8983;53.156;17.960;2023-03-01T15:43:52;10.20;96.60
17726;DHT22;8983;53.156;17.960;2023-03-01T15:46:25;10.00;96.70
17726;DHT22;8983;53.156;17.960;2023-03-01T15:48:56;9.80;96.90
17726;DHT22;8983;53.156;17.960;2023-03-01T15:51:33;9.60;97.10
17726;DHT22;8983;53.156;17.960;2023-03-01T15:54:06;9.60;97.30
17726;DHT22;8983;53.156;17.960;2023-03-01T15:56:38;9.40;97.50
17726;DHT22;8983;53.156;17.960;2023-03-01T15:59:09;9.30;97.60
17726;DHT22;8983;53.156;17.960;2023-03-01T16:01:40;9.20;97.90
17726;DHT22;8983;53.156;17.960;2023-03-01T16:04:09;9.00;98.00
17726;DHT22;8983;53.156;17.960;2023-03-01T16:06:39;8.90;98.20
17726;DHT22;8983;53.156;17.960;2023-03-01T16:09:09;8.80;98.40
17726;DHT22;8983;53.156;17.960;2023-03-01T16:11:39;8.70;98.70
17726;DHT22;8983;53.156;17.960;2023-03-01T16:14:09;8.60;98.80
17726;DHT22;8983;53.156;17.960;2023-03-01T16:16:37;8.40;99.00
17726;DHT22;8983;53.156;17.960;2023-03-01T16:19:06;8.30;99.30
17726;DHT22;8983;53.156;17.960;2023-03-01T16:21:34;8.20;99.50